createdAt,value
2023-04-22T00:01:57.777Z,33.67
2023-04-22T00:04:25.145Z,31.80
2023-04-22T00:06:51.727Z,34.20
2023-04-22T00:09:18.164Z,30.33
2023-04-22T00:11:44.638Z,53.45
2023-04-22T00:14:11.065Z,29.77
2023-04-22T00:16:37.660Z,37.53
2023-04-22T00:19:04.665Z,35.92
2023-04-22T00:21:31.240Z,37.67
2023-04-22T00:23:57.791Z,35.88
2023-04-22T00:26:24.389Z,33.03
2023-04-22T00:28:50.844Z,35.75
2023-04-22T00:31:17.307Z,39.70
2023-04-22T00:33:43.776Z,42.90
2023-04-22T00:36:10.210Z,36.38
2023-04-22T00:38:36.681Z,37.60
2023-04-22T00:41:03.148Z,30.88
2023-04-22T00:43:29.663Z,30.63
2023-04-22T00:45:57.046Z,41.70
2023-04-22T00:48:25.685Z,42.97
2023-04-22T00:50:53.897Z,31.15
2023-04-22T00:53:20.343Z,30.00
2023-04-22T00:55:46.815Z,27.13
2023-04-22T00:58:13.387Z,28.45
2023-04-22T01:00:39.894Z,41.13
2023-04-22T01:03:07.490Z,25.55
2023-04-22T01:05:34.510Z,24.20
2023-04-22T01:08:01.430Z,24.02
2023-04-22T01:10:27.882Z,19.83
2023-04-22T01:12:54.301Z,24.98
2023-04-22T01:15:20.709Z,22.95
2023-04-22T01:17:47.803Z,24.80
2023-04-22T01:20:14.459Z,20.55
2023-04-22T01:22:41.651Z,22.38
2023-04-22T01:25:09.190Z,20.45
2023-04-22T01:27:36.196Z,22.20
2023-04-22T01:30:03.138Z,21.90
2023-04-22T01:32:31.117Z,21.38
2023-04-22T01:34:58.041Z,25.73
2023-04-22T01:37:24.737Z,18.63
2023-04-22T01:39:51.653Z,18.13
2023-04-22T01:42:18.330Z,23.60
2023-04-22T01:44:44.953Z,20.45
2023-04-22T01:47:11.591Z,21.63
2023-04-22T01:49:38.247Z,19.40
2023-04-22T01:52:04.898Z,21.50
2023-04-22T01:54:31.845Z,24.27
2023-04-22T01:56:58.533Z,20.70
2023-04-22T01:59:25.172Z,18.02
2023-04-22T02:01:51.644Z,19.60
2023-04-22T02:04:18.458Z,19.40
2023-04-22T02:06:44.871Z,16.75
2023-04-22T02:09:11.437Z,19.20
2023-04-22T02:11:38.452Z,15.38
2023-04-22T02:14:04.907Z,22.73
2023-04-22T02:16:31.442Z,17.30
2023-04-22T02:18:58.041Z,14.93
2023-04-22T02:21:24.551Z,16.65
2023-04-22T02:23:50.992Z,16.95
2023-04-22T02:26:17.425Z,18.00
2023-04-22T02:28:43.921Z,16.95
2023-04-22T02:31:10.402Z,16.27
2023-04-22T02:33:39.032Z,18.17
2023-04-22T02:36:08.622Z,14.18
2023-04-22T02:38:35.077Z,20.25
2023-04-22T02:41:01.522Z,13.73
2023-04-22T02:43:28.310Z,14.88
2023-04-22T02:45:54.780Z,20.45
2023-04-22T02:48:21.320Z,15.10
2023-04-22T02:50:47.815Z,15.45
2023-04-22T02:53:14.298Z,15.77
2023-04-22T02:55:43.839Z,15.93
2023-04-22T02:58:10.637Z,17.63
2023-04-22T03:00:37.172Z,14.30
2023-04-22T03:03:03.950Z,16.45
2023-04-22T03:05:33.582Z,13.55
2023-04-22T03:08:01.569Z,18.40
2023-04-22T03:10:29.235Z,14.80
2023-04-22T03:12:55.710Z,16.15
2023-04-22T03:15:22.259Z,13.43
2023-04-22T03:17:49.253Z,12.68
2023-04-22T03:20:16.439Z,14.88
2023-04-22T03:22:42.948Z,17.30
2023-04-22T03:25:12.008Z,15.48
2023-04-22T03:27:38.684Z,14.07
2023-04-22T03:30:06.005Z,13.18
2023-04-22T03:32:33.636Z,13.30
2023-04-22T03:35:14.049Z,14.43
2023-04-22T03:37:40.915Z,16.50
2023-04-22T03:40:09.643Z,14.23
2023-04-22T03:42:37.115Z,18.35
2023-04-22T03:45:03.724Z,20.30
2023-04-22T03:47:34.888Z,16.83
2023-04-22T03:50:09.368Z,16.20
2023-04-22T03:52:35.867Z,15.90
2023-04-22T03:55:02.453Z,16.33
2023-04-22T03:57:29.967Z,19.42
2023-04-22T03:59:57.864Z,20.90
2023-04-22T04:02:24.481Z,19.25
2023-04-22T04:04:51.704Z,22.15
2023-04-22T04:07:18.776Z,21.42
2023-04-22T04:09:45.257Z,21.92
2023-04-22T04:12:12.570Z,21.25
2023-04-22T04:14:42.867Z,22.60
2023-04-22T04:17:14.112Z,19.60
2023-04-22T04:19:41.322Z,14.07
2023-04-22T04:22:08.709Z,18.40
2023-04-22T04:24:42.044Z,15.15
2023-04-22T04:27:15.165Z,16.98
2023-04-22T04:29:48.167Z,15.57
2023-04-22T04:32:21.834Z,15.18
2023-04-22T04:34:48.728Z,13.23
2023-04-22T04:37:17.039Z,15.15
2023-04-22T04:40:07.698Z,19.75
2023-04-22T04:42:49.148Z,13.07
2023-04-22T04:45:22.327Z,11.27
2023-04-22T04:47:55.404Z,14.65
2023-04-22T04:50:30.396Z,11.55
2023-04-22T04:53:01.490Z,11.55
2023-04-22T04:55:34.214Z,15.13
2023-04-22T04:58:04.761Z,15.32
2023-04-22T05:00:31.198Z,14.35
2023-04-22T05:02:58.012Z,12.45
2023-04-22T05:05:24.603Z,13.85
2023-04-22T05:07:53.649Z,11.38
2023-04-22T05:10:21.403Z,11.43
2023-04-22T05:12:48.056Z,11.43
2023-04-22T05:15:20.219Z,13.30
2023-04-22T05:17:46.692Z,12.02
2023-04-22T05:20:13.295Z,10.35
2023-04-22T05:22:43.130Z,14.10
2023-04-22T05:25:10.099Z,12.18
2023-04-22T05:27:38.977Z,12.18
2023-04-22T05:30:06.314Z,10.98
2023-04-22T05:32:33.998Z,13.82
2023-04-22T05:35:00.536Z,12.73
2023-04-22T05:37:27.064Z,12.25
2023-04-22T05:39:53.648Z,10.98
2023-04-22T05:42:20.702Z,12.05
2023-04-22T05:44:47.153Z,10.75
2023-04-22T05:47:13.929Z,11.65
2023-04-22T05:49:40.697Z,10.60
2023-04-22T05:52:16.621Z,12.10
2023-04-22T05:54:54.967Z,10.45
2023-04-22T05:57:22.123Z,9.50
2023-04-22T05:59:48.705Z,10.13
2023-04-22T06:02:16.202Z,7.75
2023-04-22T06:04:43.191Z,7.15
2023-04-22T06:07:10.039Z,7.88
2023-04-22T06:09:39.381Z,9.23
2023-04-22T06:12:07.892Z,8.70
2023-04-22T06:14:35.352Z,9.75
2023-04-22T06:17:01.900Z,7.80
2023-04-22T06:19:28.431Z,7.65
2023-04-22T06:21:54.910Z,8.43
2023-04-22T06:24:23.225Z,9.13
2023-04-22T06:26:49.669Z,7.85
2023-04-22T06:29:16.174Z,7.85
2023-04-22T06:31:42.707Z,7.63
2023-04-22T06:34:09.343Z,7.07
2023-04-22T06:36:38.740Z,7.18
2023-04-22T06:39:06.234Z,7.50
2023-04-22T06:41:50.975Z,7.82
2023-04-22T06:44:49.556Z,7.65
2023-04-22T06:47:28.734Z,6.68
2023-04-22T06:50:09.967Z,5.18
2023-04-22T06:52:44.423Z,5.32
2023-04-22T06:55:11.372Z,5.60
2023-04-22T06:57:38.257Z,5.40
2023-04-22T07:00:05.471Z,4.60
2023-04-22T07:02:37.824Z,5.40
2023-04-22T07:05:04.898Z,4.75
2023-04-22T07:07:31.486Z,5.10
2023-04-22T07:09:57.970Z,4.38
2023-04-22T07:12:28.810Z,3.65
2023-04-22T07:14:55.275Z,3.92
2023-04-22T07:17:22.642Z,4.22
2023-04-22T07:19:49.426Z,3.88
2023-04-22T07:22:15.850Z,3.05
2023-04-22T07:24:42.307Z,3.53
2023-04-22T07:27:08.814Z,3.42
2023-04-22T07:29:35.336Z,3.20
2023-04-22T07:32:01.858Z,3.28
2023-04-22T07:34:28.305Z,3.30
2023-04-22T07:36:54.737Z,3.40
2023-04-22T07:39:21.468Z,3.92
2023-04-22T07:41:47.966Z,3.45
2023-04-22T07:44:18.340Z,3.10
2023-04-22T07:46:44.800Z,3.45
2023-04-22T07:49:13.883Z,3.45
2023-04-22T07:51:40.993Z,3.35
2023-04-22T07:54:07.653Z,3.60
2023-04-22T07:56:34.594Z,3.17
2023-04-22T07:59:01.130Z,3.10
2023-04-22T08:01:27.584Z,3.40
2023-04-22T08:03:54.254Z,2.88
2023-04-22T08:06:20.785Z,3.03
2023-04-22T08:08:47.271Z,3.00
2023-04-22T08:11:13.750Z,3.17
2023-04-22T08:13:40.193Z,3.20
2023-04-22T08:16:07.479Z,2.80
2023-04-22T08:18:34.104Z,3.00
2023-04-22T08:21:02.121Z,3.22
2023-04-22T08:23:28.555Z,3.08
2023-04-22T08:25:55.095Z,2.50
2023-04-22T08:28:21.518Z,2.80
2023-04-22T08:30:48.033Z,2.47
2023-04-22T08:33:14.503Z,2.83
2023-04-22T08:35:41.082Z,2.80
2023-04-22T08:38:07.544Z,2.90
2023-04-22T08:40:34.649Z,2.30
2023-04-22T08:43:01.142Z,2.83
2023-04-22T08:45:27.819Z,2.33
2023-04-22T08:47:54.521Z,2.35
2023-04-22T08:50:23.443Z,2.40
2023-04-22T08:52:49.959Z,2.50
2023-04-22T08:55:16.552Z,2.70
2023-04-22T08:57:43.048Z,2.70
2023-04-22T09:00:09.990Z,2.33
2023-04-22T09:02:37.157Z,2.60
2023-04-22T09:05:06.072Z,2.55
2023-04-22T09:07:32.664Z,2.42
2023-04-22T09:09:59.429Z,2.20
2023-04-22T09:12:26.058Z,2.10
2023-04-22T09:14:52.976Z,2.50
2023-04-22T09:17:29.496Z,2.53
2023-04-22T09:20:06.095Z,2.75
2023-04-22T09:22:42.643Z,2.45
2023-04-22T09:25:19.490Z,2.42
2023-04-22T09:27:50.438Z,2.30
2023-04-22T09:30:19.023Z,2.22
2023-04-22T09:32:52.683Z,2.50
2023-04-22T09:35:23.596Z,2.47
2023-04-22T09:37:53.152Z,2.42
2023-04-22T09:40:20.179Z,2.53
2023-04-22T09:42:53.559Z,2.47
2023-04-22T09:45:30.753Z,2.88
2023-04-22T09:47:58.174Z,2.38
2023-04-22T09:50:25.905Z,2.10
2023-04-22T09:52:56.222Z,2.60
2023-04-22T09:55:26.781Z,2.15
2023-04-22T09:57:57.136Z,2.45
2023-04-22T10:00:25.388Z,2.42
2023-04-22T10:02:52.025Z,2.38
2023-04-22T10:05:18.538Z,2.33
2023-04-22T10:07:45.198Z,2.25
2023-04-22T10:10:12.099Z,1.88
2023-04-22T10:12:38.627Z,2.55
2023-04-22T10:15:06.613Z,2.03
2023-04-22T10:17:37.490Z,2.47
2023-04-22T10:20:06.588Z,2.13
2023-04-22T10:22:33.928Z,2.10
2023-04-22T10:25:00.680Z,2.00
2023-04-22T10:27:27.129Z,2.22
2023-04-22T10:29:56.502Z,2.20
2023-04-22T10:32:23.186Z,2.17
2023-04-22T10:34:50.079Z,2.20
2023-04-22T10:37:19.946Z,1.75
2023-04-22T10:40:18.767Z,1.95
2023-04-22T10:42:52.612Z,2.08
2023-04-22T10:45:23.965Z,1.88
2023-04-22T10:47:50.585Z,2.10
2023-04-22T10:50:20.671Z,2.08
2023-04-22T10:52:48.648Z,2.17
2023-04-22T10:55:15.419Z,1.90
2023-04-22T10:57:46.016Z,2.00
2023-04-22T11:00:45.766Z,2.40
2023-04-22T11:03:24.789Z,1.90
2023-04-22T11:06:11.368Z,1.85
2023-04-22T11:08:37.856Z,1.98
2023-04-22T11:11:11.054Z,2.50
2023-04-22T11:13:37.705Z,2.15
2023-04-22T11:16:08.182Z,2.00
2023-04-22T11:18:34.720Z,2.40
2023-04-22T11:21:09.195Z,2.35
2023-04-22T11:23:36.701Z,1.73
2023-04-22T11:26:06.500Z,2.10
2023-04-22T11:28:33.219Z,2.15
2023-04-22T11:31:06.706Z,2.08
2023-04-22T11:33:34.204Z,2.10
2023-04-22T11:36:00.985Z,2.17
2023-04-22T11:38:27.540Z,2.33
2023-04-22T11:40:55.077Z,2.00
2023-04-22T11:43:21.549Z,1.98
2023-04-22T11:45:48.022Z,2.55
2023-04-22T11:48:14.611Z,2.35
2023-04-22T11:50:42.417Z,2.17
2023-04-22T11:53:15.037Z,2.35
2023-04-22T11:55:42.030Z,1.90
2023-04-22T11:58:09.484Z,2.30
2023-04-22T12:00:37.458Z,1.83
2023-04-22T12:03:07.919Z,2.30
2023-04-22T12:05:35.990Z,2.33
2023-04-22T12:08:12.926Z,2.25
2023-04-22T12:10:41.067Z,2.20
2023-04-22T12:13:07.613Z,2.65
2023-04-22T12:15:37.506Z,2.50
2023-04-22T12:18:03.924Z,2.20
2023-04-22T12:20:37.113Z,2.03
2023-04-22T12:23:04.361Z,2.45
2023-04-22T12:25:33.702Z,2.72
2023-04-22T12:28:01.103Z,2.28
2023-04-22T12:30:27.621Z,2.47
2023-04-22T12:32:54.161Z,1.98
2023-04-22T12:35:21.192Z,2.22
2023-04-22T12:37:48.126Z,2.20
2023-04-22T12:40:15.672Z,2.47
2023-04-22T12:42:42.205Z,2.80
2023-04-22T12:45:09.409Z,2.17
2023-04-22T12:47:36.308Z,2.40
2023-04-22T12:50:06.409Z,2.10
2023-04-22T12:52:34.188Z,2.40
2023-04-22T12:55:00.862Z,2.10
2023-04-22T12:57:27.395Z,2.40
2023-04-22T12:59:54.283Z,2.63
2023-04-22T13:02:20.790Z,2.15
2023-04-22T13:04:47.225Z,2.28
2023-04-22T13:07:13.680Z,2.70
2023-04-22T13:09:40.308Z,2.70
2023-04-22T13:12:07.095Z,2.28
2023-04-22T13:14:33.585Z,2.65
2023-04-22T13:17:00.133Z,2.10
2023-04-22T13:19:27.036Z,2.17
2023-04-22T13:21:53.522Z,2.00
2023-04-22T13:24:20.681Z,2.58
2023-04-22T13:26:47.151Z,1.88
2023-04-22T13:29:14.197Z,1.70
2023-04-22T13:31:44.558Z,1.60
2023-04-22T13:34:11.495Z,1.70
2023-04-22T13:36:38.119Z,1.63
2023-04-22T13:39:04.658Z,1.73
2023-04-22T13:41:31.135Z,1.73
2023-04-22T13:43:57.733Z,1.80
2023-04-22T13:46:24.908Z,1.80
2023-04-22T13:48:51.644Z,1.80
2023-04-22T13:51:18.138Z,2.20
2023-04-22T13:53:45.094Z,1.90
2023-04-22T13:56:12.711Z,2.30
2023-04-22T13:58:40.547Z,2.72
2023-04-22T14:01:07.550Z,2.80
2023-04-22T14:03:34.492Z,2.80
2023-04-22T14:06:01.220Z,3.22
2023-04-22T14:08:27.654Z,2.42
2023-04-22T14:10:54.432Z,2.47
2023-04-22T14:13:21.815Z,2.22
2023-04-22T14:15:50.446Z,2.75
2023-04-22T14:18:16.935Z,2.90
2023-04-22T14:20:45.059Z,2.50
2023-04-22T14:23:11.831Z,2.70
2023-04-22T14:25:38.433Z,2.47
2023-04-22T14:28:05.466Z,2.55
2023-04-22T14:30:31.934Z,2.75
2023-04-22T14:32:58.475Z,2.67
2023-04-22T14:35:24.990Z,12.13
2023-04-22T14:37:51.524Z,2.97
2023-04-22T14:40:19.944Z,2.00
2023-04-22T14:42:46.996Z,2.20
2023-04-22T14:45:14.641Z,2.90
2023-04-22T14:47:41.240Z,2.17
2023-04-22T14:50:07.846Z,2.20
2023-04-22T14:52:34.432Z,2.53
2023-04-22T14:55:11.933Z,2.38
2023-04-22T14:57:46.627Z,2.55
2023-04-22T15:00:13.788Z,2.80
2023-04-22T15:02:40.570Z,2.55
2023-04-22T15:05:07.231Z,2.30
2023-04-22T15:07:33.689Z,2.50
2023-04-22T15:10:00.729Z,2.35
2023-04-22T15:12:27.262Z,2.22
2023-04-22T15:14:53.688Z,1.80
2023-04-22T15:17:20.812Z,2.40
2023-04-22T15:19:47.414Z,1.98
2023-04-22T15:22:13.872Z,1.55
2023-04-22T15:24:40.996Z,1.90
2023-04-22T15:27:07.587Z,1.42
2023-04-22T15:29:34.112Z,1.83
2023-04-22T15:32:02.122Z,3.05
2023-04-22T15:34:28.711Z,1.70
2023-04-22T15:36:55.164Z,1.45
2023-04-22T15:39:22.880Z,1.17
2023-04-22T15:41:49.546Z,1.80
2023-04-22T15:44:16.808Z,1.60
2023-04-22T15:46:45.680Z,2.00
2023-04-22T15:49:12.936Z,1.92
2023-04-22T15:51:39.400Z,2.17
2023-04-22T15:54:05.812Z,1.77
2023-04-22T15:56:34.493Z,1.85
2023-04-22T15:59:00.972Z,1.90
2023-04-22T16:01:27.477Z,1.67
2023-04-22T16:03:54.055Z,2.00
2023-04-22T16:06:20.642Z,2.15
2023-04-22T16:08:47.184Z,2.50
2023-04-22T16:11:14.287Z,2.22
2023-04-22T16:13:41.127Z,2.35
2023-04-22T16:16:08.152Z,2.88
2023-04-22T16:18:34.638Z,2.63
2023-04-22T16:21:01.354Z,3.17
2023-04-22T16:23:27.999Z,3.13
2023-04-22T16:25:54.806Z,3.17
2023-04-22T16:28:21.685Z,3.25
2023-04-22T16:30:48.371Z,3.13
2023-04-22T16:33:15.677Z,3.60
2023-04-22T16:35:42.182Z,4.70
2023-04-22T16:38:09.932Z,4.85
2023-04-22T16:40:37.770Z,5.25
2023-04-22T16:43:05.230Z,6.90
2023-04-22T16:45:31.979Z,5.43
2023-04-22T16:47:58.482Z,6.95
2023-04-22T16:50:24.968Z,6.35
2023-04-22T16:52:51.695Z,6.28
2023-04-22T16:55:18.285Z,5.43
2023-04-22T16:57:47.593Z,7.57
2023-04-22T17:00:14.874Z,8.40
2023-04-22T17:02:41.740Z,7.45
2023-04-22T17:05:08.694Z,13.48
2023-04-22T17:07:35.624Z,7.97
2023-04-22T17:10:02.135Z,9.93
2023-04-22T17:12:28.614Z,21.63
2023-04-22T17:14:55.162Z,29.70
2023-04-22T17:17:21.713Z,39.47
2023-04-22T17:19:48.297Z,43.90
2023-04-22T17:22:14.846Z,23.63
2023-04-22T17:24:41.399Z,18.80
2023-04-22T17:27:08.095Z,19.75
2023-04-22T17:29:34.984Z,13.65
2023-04-22T17:32:01.768Z,19.85
2023-04-22T17:34:28.354Z,25.02
2023-04-22T17:36:54.865Z,20.23
2023-04-22T17:39:21.451Z,16.75
2023-04-22T17:41:48.065Z,12.63
2023-04-22T17:44:14.510Z,15.55
2023-04-22T17:46:41.607Z,13.93
2023-04-22T17:49:08.616Z,10.18
2023-04-22T17:51:35.288Z,14.90
2023-04-22T17:54:03.171Z,67.20
2023-04-22T17:56:29.631Z,33.75
2023-04-22T17:58:56.155Z,77.22
2023-04-22T18:01:22.729Z,111.78
2023-04-22T18:03:49.474Z,72.63
2023-04-22T18:06:16.190Z,43.78
2023-04-22T18:08:42.633Z,36.72
2023-04-22T18:11:09.681Z,24.20
2023-04-22T18:13:36.691Z,15.32
2023-04-22T18:16:03.306Z,19.65
2023-04-22T18:18:29.805Z,33.60
2023-04-22T18:20:56.624Z,46.25
2023-04-22T18:23:23.275Z,34.05
2023-04-22T18:25:50.107Z,19.30
2023-04-22T18:28:16.624Z,24.80
2023-04-22T18:30:44.243Z,36.28
2023-04-22T18:33:10.772Z,26.40
2023-04-22T18:35:37.340Z,21.00
2023-04-22T18:38:03.935Z,43.78
2023-04-22T18:40:30.506Z,37.65
2023-04-22T18:42:57.627Z,25.77
2023-04-22T18:45:24.138Z,32.97
2023-04-22T18:47:50.669Z,36.10
2023-04-22T18:50:17.337Z,24.73
2023-04-22T18:52:43.827Z,32.67
2023-04-22T18:55:10.688Z,35.47
2023-04-22T18:57:37.646Z,37.83
2023-04-22T19:00:06.190Z,22.60
2023-04-22T19:04:59.412Z,16.92
2023-04-22T19:07:25.948Z,14.77
2023-04-22T19:09:52.610Z,15.00
2023-04-22T19:12:19.562Z,15.00
2023-04-22T19:14:47.795Z,10.27
2023-04-22T19:17:14.274Z,10.80
2023-04-22T19:19:41.038Z,10.98
2023-04-22T19:22:08.113Z,10.48
2023-04-22T19:24:35.309Z,14.25
2023-04-22T19:27:02.766Z,13.30
2023-04-22T19:29:29.577Z,17.25
2023-04-22T19:31:57.270Z,17.27
2023-04-22T19:34:23.877Z,20.63
2023-04-22T19:36:51.255Z,20.88
2023-04-22T19:39:18.056Z,21.55
2023-04-22T19:41:44.513Z,21.77
2023-04-22T19:44:11.011Z,23.15
2023-04-22T19:46:38.337Z,24.88
2023-04-22T19:49:05.432Z,25.48
2023-04-22T19:51:32.552Z,29.98
2023-04-22T19:53:59.102Z,27.88
2023-04-22T19:56:25.627Z,26.13
2023-04-22T19:58:52.189Z,24.38
2023-04-22T20:01:18.823Z,27.88
2023-04-22T20:03:47.016Z,28.98
2023-04-22T20:06:15.040Z,25.13
2023-04-22T20:08:42.356Z,21.13
2023-04-22T20:11:09.400Z,31.73
2023-04-22T20:13:36.483Z,35.28
2023-04-22T20:16:03.675Z,34.28
2023-04-22T20:18:30.463Z,29.58
2023-04-22T20:20:58.600Z,32.15
2023-04-22T20:23:26.542Z,36.22
2023-04-22T20:25:55.825Z,36.83
2023-04-22T20:28:22.734Z,35.88
2023-04-22T20:30:51.975Z,31.23
2023-04-22T20:33:19.667Z,42.47
2023-04-22T20:35:48.934Z,29.80
2023-04-22T20:38:15.761Z,39.47
2023-04-22T20:40:43.970Z,35.65
2023-04-22T20:43:10.703Z,36.90
2023-04-22T20:45:38.061Z,31.40
2023-04-22T20:48:05.196Z,34.38
2023-04-22T20:50:33.466Z,32.90
2023-04-22T20:53:00.965Z,31.00
2023-04-22T20:55:27.432Z,39.17
2023-04-22T20:57:53.867Z,30.42
2023-04-22T21:00:20.628Z,24.52
2023-04-22T21:02:47.489Z,22.50
2023-04-22T21:05:14.163Z,29.50
2023-04-22T21:07:41.348Z,26.35
2023-04-22T21:10:08.234Z,26.20
2023-04-22T21:12:34.860Z,24.65
2023-04-22T21:15:01.386Z,19.75
2023-04-22T21:17:30.739Z,25.48
2023-04-22T21:19:58.143Z,28.75
2023-04-22T21:22:24.706Z,24.48
2023-04-22T21:24:51.916Z,27.52
2023-04-22T21:27:18.806Z,27.98
2023-04-22T21:29:46.574Z,34.97
2023-04-22T21:32:13.530Z,34.83
2023-04-22T21:34:40.662Z,33.20
2023-04-22T21:37:08.109Z,30.13
2023-04-22T21:39:34.863Z,35.47
2023-04-22T21:42:02.797Z,35.72
2023-04-22T21:44:29.223Z,33.28
2023-04-22T21:46:55.682Z,42.20
2023-04-22T21:49:23.084Z,37.60
2023-04-22T21:51:49.783Z,37.60
2023-04-22T21:54:16.607Z,33.38
2023-04-22T21:56:43.092Z,34.45
2023-04-22T21:59:09.668Z,40.97
2023-04-22T22:01:36.188Z,30.70
2023-04-22T22:04:03.179Z,41.53
2023-04-22T22:06:30.090Z,31.33
2023-04-22T22:08:56.553Z,38.95
2023-04-22T22:13:52.335Z,33.40
2023-04-22T22:16:19.133Z,34.72
2023-04-22T22:18:45.792Z,42.33
2023-04-22T22:21:12.820Z,41.20
2023-04-22T22:23:39.288Z,39.72
2023-04-22T22:26:06.053Z,37.95
2023-04-22T22:28:32.588Z,41.88
2023-04-22T22:31:02.316Z,42.58
2023-04-22T22:33:29.137Z,47.22
2023-04-22T22:35:55.937Z,42.95
2023-04-22T22:38:22.542Z,47.53
2023-04-22T22:40:49.049Z,68.30
2023-04-22T22:43:15.599Z,46.92
2023-04-22T22:45:42.248Z,51.78
2023-04-22T22:48:08.731Z,58.55
2023-04-22T22:50:35.230Z,46.58
2023-04-22T22:53:01.655Z,58.00
2023-04-22T22:55:28.122Z,50.38
2023-04-22T22:57:54.584Z,49.53
2023-04-22T23:00:21.068Z,51.05
2023-04-22T23:02:48.013Z,47.42
2023-04-22T23:05:14.518Z,55.38
2023-04-22T23:07:41.455Z,50.92
2023-04-22T23:10:08.285Z,55.42
2023-04-22T23:12:35.328Z,46.08
2023-04-22T23:15:01.805Z,48.88
2023-04-22T23:17:28.513Z,51.13
2023-04-22T23:19:55.541Z,49.25
2023-04-22T23:22:22.164Z,55.67
2023-04-22T23:24:48.773Z,51.22
2023-04-22T23:27:16.161Z,47.05
2023-04-22T23:29:42.864Z,48.30
2023-04-22T23:32:09.936Z,56.90
2023-04-22T23:34:39.179Z,49.17
2023-04-22T23:37:06.155Z,55.92
2023-04-22T23:39:32.724Z,55.00
2023-04-22T23:41:59.165Z,50.50
2023-04-22T23:44:25.579Z,47.97
2023-04-22T23:46:52.004Z,49.88
2023-04-22T23:49:18.410Z,47.20
2023-04-22T23:51:45.089Z,45.28
2023-04-22T23:54:11.545Z,76.05
2023-04-22T23:56:38.150Z,48.53
2023-04-22T23:59:04.741Z,45.33
